createdAt,value
2023-05-25T00:02:09.512Z,75.86
2023-05-25T00:04:42.823Z,75.79
2023-05-25T00:07:16.114Z,75.73
2023-05-25T00:09:50.378Z,76.11
2023-05-25T00:12:23.125Z,75.62
2023-05-25T00:14:56.183Z,74.27
2023-05-25T00:17:30.127Z,73.81
2023-05-25T00:20:08.168Z,75.05
2023-05-25T00:22:45.020Z,75.91
2023-05-25T00:25:21.097Z,75.19
2023-05-25T00:27:53.903Z,73.83
2023-05-25T00:30:26.652Z,73.58
2023-05-25T00:33:00.188Z,74.08
2023-05-25T00:35:32.912Z,73.99
2023-05-25T00:38:05.570Z,74.61
2023-05-25T00:40:40.388Z,74.93
2023-05-25T00:43:13.440Z,75.47
2023-05-25T00:45:46.489Z,75.27
2023-05-25T00:48:19.328Z,74.97
2023-05-25T00:50:54.660Z,76.40
2023-05-25T00:53:27.410Z,75.22
2023-05-25T00:56:04.383Z,74.82
2023-05-25T00:58:38.811Z,73.91
2023-05-25T01:01:13.601Z,74.69
2023-05-25T01:03:53.720Z,74.43
2023-05-25T01:06:27.814Z,74.43
2023-05-25T01:09:02.802Z,74.59
2023-05-25T01:11:38.048Z,74.15
2023-05-25T01:14:11.006Z,71.33
2023-05-25T01:16:44.256Z,73.70
2023-05-25T01:19:17.224Z,73.00
2023-05-25T01:21:56.839Z,72.85
2023-05-25T01:24:32.526Z,72.93
2023-05-25T01:27:09.114Z,72.79
2023-05-25T01:29:43.131Z,73.25
2023-05-25T01:32:16.816Z,73.60
2023-05-25T01:34:50.331Z,74.20
2023-05-25T01:37:26.512Z,73.84
2023-05-25T01:39:59.444Z,74.03
2023-05-25T01:42:32.317Z,74.64
2023-05-25T01:45:05.313Z,74.93
2023-05-25T01:47:42.026Z,74.24
2023-05-25T01:50:20.057Z,74.35
2023-05-25T01:52:57.620Z,74.91
2023-05-25T01:55:31.147Z,75.09
2023-05-25T01:58:03.994Z,75.49
2023-05-25T02:00:36.820Z,76.12
2023-05-25T02:03:10.347Z,76.11
2023-05-25T02:05:44.018Z,76.35
2023-05-25T02:08:18.405Z,76.48
2023-05-25T02:10:51.248Z,76.52
2023-05-25T02:13:24.182Z,77.09
2023-05-25T02:15:57.084Z,76.82
2023-05-25T02:18:30.171Z,76.68
2023-05-25T02:21:02.898Z,76.25
2023-05-25T02:23:37.191Z,76.52
2023-05-25T02:26:09.984Z,77.24
2023-05-25T02:28:43.136Z,77.21
2023-05-25T02:31:16.034Z,76.81
2023-05-25T02:33:48.994Z,76.83
2023-05-25T02:36:21.797Z,76.98
2023-05-25T02:38:56.199Z,76.88
2023-05-25T02:41:28.963Z,76.54
2023-05-25T02:44:02.145Z,77.18
2023-05-25T02:46:34.998Z,77.43
2023-05-25T02:49:07.815Z,76.89
2023-05-25T02:51:40.786Z,76.43
2023-05-25T02:54:14.858Z,76.81
2023-05-25T02:56:47.580Z,76.73
2023-05-25T02:59:20.272Z,76.91
2023-05-25T03:01:53.022Z,77.26
2023-05-25T03:04:26.187Z,77.29
2023-05-25T03:06:58.849Z,76.29
2023-05-25T03:09:33.348Z,76.10
2023-05-25T03:12:06.565Z,76.69
2023-05-25T03:14:39.523Z,76.99
2023-05-25T03:17:12.235Z,76.43
2023-05-25T03:19:45.434Z,76.80
2023-05-25T03:22:18.363Z,77.13
2023-05-25T03:24:52.680Z,77.43
2023-05-25T03:27:25.439Z,76.23
2023-05-25T03:29:58.177Z,76.93
2023-05-25T03:32:31.126Z,77.24
2023-05-25T03:35:04.549Z,77.42
2023-05-25T03:37:37.843Z,77.51
2023-05-25T03:40:12.840Z,76.80
2023-05-25T03:42:45.851Z,77.31
2023-05-25T03:45:18.626Z,77.45
2023-05-25T03:47:51.337Z,77.52
2023-05-25T03:50:24.200Z,77.84
2023-05-25T03:52:56.988Z,78.03
2023-05-25T03:55:32.588Z,78.15
2023-05-25T03:58:05.272Z,78.25
2023-05-25T04:00:38.071Z,78.78
2023-05-25T04:03:11.030Z,78.75
2023-05-25T04:05:45.968Z,78.69
2023-05-25T04:08:18.972Z,78.50
2023-05-25T04:10:53.135Z,78.13
2023-05-25T04:13:26.255Z,78.20
2023-05-25T04:15:58.958Z,78.03
2023-05-25T04:18:31.760Z,77.98
2023-05-25T04:21:04.611Z,77.81
2023-05-25T04:23:37.289Z,77.77
2023-05-25T04:26:11.567Z,77.94
2023-05-25T04:28:44.224Z,78.25
2023-05-25T04:31:17.411Z,78.33
2023-05-25T04:33:50.196Z,78.24
2023-05-25T04:36:23.615Z,78.39
2023-05-25T04:38:56.376Z,78.51
2023-05-25T04:41:31.175Z,78.56
2023-05-25T04:44:09.666Z,78.31
2023-05-25T04:46:44.776Z,78.39
2023-05-25T04:49:18.996Z,77.98
2023-05-25T04:51:51.782Z,78.48
2023-05-25T04:54:24.520Z,77.74
2023-05-25T04:56:58.797Z,77.20
2023-05-25T04:59:31.469Z,77.65
2023-05-25T05:02:04.219Z,77.83
2023-05-25T05:04:37.382Z,77.76
2023-05-25T05:07:10.259Z,78.22
2023-05-25T05:09:43.295Z,78.23
2023-05-25T05:12:17.420Z,78.22
2023-05-25T05:14:50.220Z,78.46
2023-05-25T05:17:23.399Z,78.31
2023-05-25T05:19:56.220Z,78.76
2023-05-25T05:22:28.984Z,78.66
2023-05-25T05:25:02.278Z,79.00
2023-05-25T05:27:36.658Z,78.83
2023-05-25T05:30:10.008Z,78.83
2023-05-25T05:32:44.619Z,79.17
2023-05-25T05:35:18.808Z,78.80
2023-05-25T05:37:51.607Z,79.15
2023-05-25T05:40:26.205Z,79.14
2023-05-25T05:43:00.400Z,79.63
2023-05-25T05:45:33.184Z,78.27
2023-05-25T05:48:09.804Z,78.24
2023-05-25T05:50:42.675Z,78.32
2023-05-25T05:53:15.667Z,78.88
2023-05-25T05:55:50.390Z,79.32
2023-05-25T05:58:27.811Z,79.95
2023-05-25T06:01:01.617Z,79.56
2023-05-25T06:03:34.474Z,79.71
2023-05-25T06:06:07.449Z,78.88
2023-05-25T06:08:41.125Z,79.18
2023-05-25T06:11:13.910Z,79.89
2023-05-25T06:13:48.062Z,79.06
2023-05-25T06:16:21.030Z,80.02
2023-05-25T06:18:53.795Z,81.12
2023-05-25T06:21:26.524Z,79.50
2023-05-25T06:23:59.419Z,78.73
2023-05-25T06:26:32.269Z,79.74
2023-05-25T06:29:06.672Z,79.33
2023-05-25T06:31:39.421Z,79.32
2023-05-25T06:34:12.129Z,75.76
2023-05-25T06:36:45.121Z,78.19
2023-05-25T06:39:17.858Z,78.92
2023-05-25T06:41:51.150Z,80.00
2023-05-25T06:44:27.213Z,79.20
2023-05-25T06:46:59.994Z,80.61
2023-05-25T06:49:32.843Z,79.29
2023-05-25T06:52:05.730Z,80.04
2023-05-25T06:54:38.502Z,80.08
2023-05-25T06:57:11.202Z,80.51
2023-05-25T06:59:45.372Z,81.03
2023-05-25T07:02:18.914Z,79.56
2023-05-25T07:04:51.723Z,79.02
2023-05-25T07:07:24.562Z,78.86
2023-05-25T07:09:57.326Z,80.22
2023-05-25T07:12:30.072Z,75.60
2023-05-25T07:15:04.245Z,79.61
2023-05-25T07:17:38.356Z,79.83
2023-05-25T07:20:13.230Z,79.54
2023-05-25T07:22:48.274Z,77.83
2023-05-25T07:25:21.340Z,78.22
2023-05-25T07:27:55.187Z,77.70
2023-05-25T07:30:29.619Z,78.26
2023-05-25T07:33:02.418Z,77.01
2023-05-25T07:35:35.706Z,76.79
2023-05-25T07:38:08.468Z,77.45
2023-05-25T07:40:41.289Z,78.22
2023-05-25T07:43:14.034Z,79.00
2023-05-25T07:45:48.721Z,78.33
2023-05-25T07:48:21.531Z,79.04
2023-05-25T07:50:54.428Z,79.24
2023-05-25T07:53:27.269Z,79.91
2023-05-25T07:56:00.131Z,79.95
2023-05-25T07:58:32.870Z,78.64
2023-05-25T08:01:07.165Z,78.33
2023-05-25T08:03:49.024Z,78.82
2023-05-25T08:06:23.392Z,79.44
2023-05-25T08:08:56.177Z,81.07
2023-05-25T08:11:28.982Z,81.66
2023-05-25T08:14:01.767Z,81.42
2023-05-25T08:16:36.550Z,80.22
2023-05-25T08:19:09.285Z,79.90
2023-05-25T08:21:42.096Z,80.35
2023-05-25T08:24:14.807Z,73.57
2023-05-25T08:26:54.850Z,79.46
2023-05-25T08:29:28.120Z,79.67
2023-05-25T08:32:02.270Z,79.51
2023-05-25T08:34:35.285Z,79.81
2023-05-25T08:37:08.075Z,78.77
2023-05-25T08:39:40.815Z,78.88
2023-05-25T08:42:13.913Z,75.63
2023-05-25T08:44:46.700Z,79.80
2023-05-25T08:47:23.190Z,79.16
2023-05-25T08:49:56.544Z,78.88
2023-05-25T08:52:31.439Z,78.21
2023-05-25T08:55:06.094Z,78.09
2023-05-25T08:57:44.822Z,70.72
2023-05-25T09:00:20.572Z,74.29
2023-05-25T09:02:59.222Z,76.71
2023-05-25T09:05:32.292Z,75.29
2023-05-25T09:08:06.748Z,74.71
2023-05-25T09:10:39.963Z,75.51
2023-05-25T09:13:21.771Z,76.62
2023-05-25T09:15:55.125Z,79.67
2023-05-25T09:18:29.507Z,81.75
2023-05-25T09:21:02.785Z,79.20
2023-05-25T09:23:36.480Z,80.31
2023-05-25T09:26:09.507Z,80.15
2023-05-25T09:28:46.692Z,79.46
2023-05-25T09:31:19.434Z,80.29
2023-05-25T09:34:00.228Z,79.75
2023-05-25T09:36:35.414Z,78.96
2023-05-25T09:39:09.703Z,77.93
2023-05-25T09:41:42.746Z,77.22
2023-05-25T09:44:15.876Z,79.64
2023-05-25T09:46:48.596Z,75.71
2023-05-25T09:49:22.821Z,62.18
2023-05-25T09:51:56.326Z,74.67
2023-05-25T09:54:29.123Z,69.40
2023-05-25T09:57:04.170Z,72.66
2023-05-25T09:59:37.091Z,75.08
2023-05-25T10:02:10.091Z,72.21
2023-05-25T10:04:44.304Z,73.80
2023-05-25T10:07:17.364Z,72.12
2023-05-25T10:09:53.549Z,75.84
2023-05-25T10:12:26.900Z,67.58
2023-05-25T10:15:02.758Z,74.99
2023-05-25T10:17:37.143Z,74.24
2023-05-25T10:20:12.618Z,66.66
2023-05-25T10:22:46.293Z,74.63
2023-05-25T10:25:22.579Z,74.04
2023-05-25T10:27:59.632Z,77.64
2023-05-25T10:30:33.810Z,79.20
2023-05-25T10:33:07.449Z,77.13
2023-05-25T10:36:01.637Z,79.32
2023-05-25T10:38:36.028Z,77.60
2023-05-25T10:41:10.844Z,70.89
2023-05-25T10:43:44.130Z,71.13
2023-05-25T10:46:18.748Z,70.57
2023-05-25T10:48:52.873Z,76.34
2023-05-25T10:51:37.910Z,77.63
2023-05-25T10:54:14.544Z,68.84
2023-05-25T10:57:02.211Z,74.14
2023-05-25T10:59:34.909Z,75.80
2023-05-25T11:02:09.227Z,76.51
2023-05-25T11:04:42.600Z,76.99
2023-05-25T11:07:18.715Z,78.03
2023-05-25T11:09:58.488Z,77.79
2023-05-25T11:12:31.498Z,77.11
2023-05-25T11:15:15.192Z,79.54
2023-05-25T11:17:59.231Z,69.40
2023-05-25T11:20:34.031Z,71.29
2023-05-25T11:23:21.870Z,75.92
2023-05-25T11:26:05.936Z,79.59
2023-05-25T11:28:46.473Z,78.12
2023-05-25T11:31:21.293Z,76.40
2023-05-25T11:33:57.395Z,72.80
2023-05-25T11:36:31.603Z,67.63
2023-05-25T11:39:11.640Z,67.84
2023-05-25T11:41:56.928Z,70.88
2023-05-25T11:44:30.569Z,70.79
2023-05-25T11:47:06.116Z,66.60
2023-05-25T11:49:42.108Z,70.01
2023-05-25T11:52:15.948Z,73.21
2023-05-25T11:54:48.691Z,74.86
2023-05-25T11:57:25.244Z,74.46
2023-05-25T12:00:01.018Z,72.62
2023-05-25T12:02:38.883Z,70.14
2023-05-25T12:05:12.397Z,69.78
2023-05-25T12:07:46.859Z,62.43
2023-05-25T12:10:19.663Z,71.45
2023-05-25T12:12:58.488Z,71.22
2023-05-25T12:15:31.367Z,72.66
2023-05-25T12:18:04.269Z,73.27
2023-05-25T12:20:38.875Z,70.77
2023-05-25T12:23:11.998Z,75.50
2023-05-25T12:25:50.886Z,73.53
2023-05-25T12:28:25.486Z,74.51
2023-05-25T12:30:58.679Z,73.84
2023-05-25T12:33:31.517Z,75.10
2023-05-25T12:36:04.385Z,67.31
2023-05-25T12:38:37.103Z,71.62
2023-05-25T12:41:09.867Z,72.18
2023-05-25T12:43:44.269Z,64.37
2023-05-25T12:46:25.110Z,71.58
2023-05-25T12:48:57.950Z,66.49
2023-05-25T12:51:38.979Z,74.07
2023-05-25T12:54:11.752Z,72.67
2023-05-25T12:56:56.804Z,68.94
2023-05-25T12:59:31.575Z,62.97
2023-05-25T13:02:05.452Z,63.85
2023-05-25T13:04:39.000Z,66.87
2023-05-25T13:07:12.640Z,61.54
2023-05-25T13:09:45.434Z,71.06
2023-05-25T13:12:18.401Z,72.41
2023-05-25T13:14:52.745Z,72.63
2023-05-25T13:17:25.556Z,67.19
2023-05-25T13:19:58.879Z,74.30
2023-05-25T13:22:32.287Z,75.08
2023-05-25T13:25:05.319Z,60.32
2023-05-25T13:27:39.065Z,66.88
2023-05-25T13:30:13.390Z,68.66
2023-05-25T13:32:48.047Z,68.14
2023-05-25T13:35:37.758Z,69.45
2023-05-25T13:38:11.118Z,73.73
2023-05-25T13:40:44.104Z,52.60
2023-05-25T13:43:17.067Z,67.90
2023-05-25T13:45:51.133Z,70.30
2023-05-25T13:48:24.282Z,73.12
2023-05-25T13:50:57.241Z,63.41
2023-05-25T13:53:29.969Z,58.62
2023-05-25T13:56:02.741Z,68.15
2023-05-25T13:58:36.606Z,68.87
2023-05-25T14:01:10.726Z,70.21
2023-05-25T14:03:43.715Z,66.50
2023-05-25T14:06:16.614Z,73.78
2023-05-25T14:08:49.282Z,74.03
2023-05-25T14:11:28.151Z,71.91
2023-05-25T14:14:01.405Z,67.31
2023-05-25T14:16:36.121Z,72.83
2023-05-25T14:19:08.984Z,73.88
2023-05-25T14:21:41.754Z,63.86
2023-05-25T14:24:14.510Z,66.14
2023-05-25T14:26:47.159Z,71.21
2023-05-25T14:29:19.829Z,69.88
2023-05-25T14:31:54.084Z,70.65
2023-05-25T14:34:26.883Z,70.19
2023-05-25T14:36:59.592Z,72.97
2023-05-25T14:39:32.318Z,72.13
2023-05-25T14:42:05.993Z,70.93
2023-05-25T14:44:38.724Z,71.81
2023-05-25T14:47:12.906Z,60.20
2023-05-25T14:49:45.706Z,71.95
2023-05-25T14:52:18.440Z,71.26
2023-05-25T14:54:51.176Z,63.39
2023-05-25T14:57:23.844Z,69.90
2023-05-25T14:59:56.650Z,71.44
2023-05-25T15:02:30.865Z,73.77
2023-05-25T15:05:03.672Z,68.90
2023-05-25T15:07:36.525Z,68.97
2023-05-25T15:10:09.702Z,70.95
2023-05-25T15:12:42.380Z,69.06
2023-05-25T15:15:15.394Z,63.99
2023-05-25T15:17:49.570Z,73.58
2023-05-25T15:20:22.421Z,63.31
2023-05-25T15:22:55.135Z,69.87
2023-05-25T15:28:03.446Z,72.54
2023-05-25T15:30:36.804Z,71.96
2023-05-25T15:33:11.064Z,68.17
2023-05-25T15:35:44.021Z,70.14
2023-05-25T15:38:17.087Z,61.26
2023-05-25T15:40:49.870Z,63.76
2023-05-25T15:43:22.602Z,69.55
2023-05-25T15:45:55.333Z,69.65
2023-05-25T15:48:29.596Z,72.38
2023-05-25T15:51:02.367Z,72.64
2023-05-25T15:53:35.227Z,72.49
2023-05-25T15:56:08.150Z,71.38
2023-05-25T15:58:40.928Z,73.09
2023-05-25T16:01:14.128Z,74.49
2023-05-25T16:03:48.885Z,73.81
2023-05-25T16:06:21.916Z,70.54
2023-05-25T16:08:54.724Z,74.65
2023-05-25T16:11:28.365Z,71.18
2023-05-25T16:14:01.180Z,72.84
2023-05-25T16:16:34.485Z,68.99
2023-05-25T16:19:09.142Z,65.34
2023-05-25T16:21:42.770Z,70.49
2023-05-25T16:24:15.569Z,72.68
2023-05-25T16:26:48.722Z,72.86
2023-05-25T16:29:21.425Z,74.33
2023-05-25T16:31:55.625Z,74.32
2023-05-25T16:34:29.956Z,73.11
2023-05-25T16:37:02.730Z,72.74
2023-05-25T16:39:37.540Z,72.21
2023-05-25T16:42:10.314Z,74.39
2023-05-25T16:44:43.038Z,68.63
2023-05-25T16:47:16.167Z,73.23
2023-05-25T16:49:50.566Z,71.85
2023-05-25T16:52:23.272Z,73.34
2023-05-25T16:54:56.425Z,71.36
2023-05-25T16:57:29.588Z,69.81
2023-05-25T17:00:02.362Z,71.89
2023-05-25T17:02:35.102Z,72.52
2023-05-25T17:05:10.211Z,73.25
2023-05-25T17:07:43.008Z,72.96
2023-05-25T17:10:15.822Z,72.97
2023-05-25T17:12:48.708Z,73.08
2023-05-25T17:15:21.476Z,73.38
2023-05-25T17:17:54.259Z,73.59
2023-05-25T17:20:28.588Z,73.85
2023-05-25T17:23:01.360Z,73.92
2023-05-25T17:25:34.402Z,74.05
2023-05-25T17:28:07.457Z,74.19
2023-05-25T17:30:40.117Z,74.26
2023-05-25T17:33:12.869Z,74.44
2023-05-25T17:35:47.402Z,74.61
2023-05-25T17:38:20.462Z,74.41
2023-05-25T17:40:53.176Z,74.37
2023-05-25T17:43:25.844Z,74.36
2023-05-25T17:45:59.218Z,74.07
2023-05-25T17:48:32.338Z,73.74
2023-05-25T17:51:06.543Z,73.67
2023-05-25T17:53:39.350Z,74.24
2023-05-25T17:56:12.001Z,73.63
2023-05-25T17:58:47.845Z,72.78
2023-05-25T18:01:20.861Z,72.85
2023-05-25T18:03:54.606Z,73.08
2023-05-25T18:06:29.453Z,73.05
2023-05-25T18:09:02.356Z,73.13
2023-05-25T18:11:36.652Z,73.13
2023-05-25T18:14:09.683Z,73.43
2023-05-25T18:16:44.685Z,73.71
2023-05-25T18:19:20.248Z,73.94
2023-05-25T18:21:54.298Z,74.17
2023-05-25T18:24:28.018Z,73.68
2023-05-25T18:27:03.753Z,73.80
2023-05-25T18:29:36.579Z,74.20
2023-05-25T18:32:09.356Z,74.29
2023-05-25T18:34:42.476Z,74.43
2023-05-25T18:37:16.876Z,74.66
2023-05-25T18:39:49.737Z,74.80
2023-05-25T18:42:22.558Z,74.50
2023-05-25T18:44:55.296Z,74.67
2023-05-25T18:47:28.118Z,74.57
2023-05-25T18:50:01.142Z,74.43
2023-05-25T18:52:35.374Z,74.33
2023-05-25T18:55:08.816Z,73.59
2023-05-25T18:57:41.634Z,73.86
2023-05-25T19:00:15.087Z,73.64
2023-05-25T19:02:48.073Z,73.30
2023-05-25T19:05:22.601Z,72.93
2023-05-25T19:07:59.539Z,72.58
2023-05-25T19:10:32.694Z,72.21
2023-05-25T19:13:05.418Z,72.08
2023-05-25T19:15:38.344Z,71.90
2023-05-25T19:18:11.128Z,71.78
2023-05-25T19:20:44.310Z,71.77
2023-05-25T19:23:19.471Z,71.89
2023-05-25T19:25:52.232Z,71.90
2023-05-25T19:28:24.944Z,72.11
2023-05-25T19:30:57.659Z,72.08
2023-05-25T19:33:30.451Z,72.17
2023-05-25T19:36:03.158Z,72.28
2023-05-25T19:38:41.616Z,72.66
2023-05-25T19:41:16.220Z,73.43
2023-05-25T19:43:48.965Z,74.10
2023-05-25T19:46:21.816Z,74.45
2023-05-25T19:48:54.525Z,74.79
2023-05-25T19:51:27.446Z,75.05
2023-05-25T19:54:01.735Z,75.36
2023-05-25T19:56:35.146Z,75.89
2023-05-25T19:59:07.901Z,75.94
2023-05-25T20:01:40.867Z,76.16
2023-05-25T20:04:13.617Z,76.53
2023-05-25T20:06:46.331Z,76.68
2023-05-25T20:09:24.541Z,76.82
2023-05-25T20:11:57.591Z,77.05
2023-05-25T20:14:30.922Z,76.98
2023-05-25T20:17:03.726Z,76.84
2023-05-25T20:19:36.409Z,76.83
2023-05-25T20:22:09.185Z,77.02
2023-05-25T20:24:43.426Z,77.02
2023-05-25T20:27:16.147Z,77.26
2023-05-25T20:29:48.882Z,77.13
2023-05-25T20:32:21.676Z,76.99
2023-05-25T20:34:54.608Z,77.15
2023-05-25T20:37:27.319Z,77.31
2023-05-25T20:40:01.545Z,77.22
2023-05-25T20:42:34.254Z,77.03
2023-05-25T20:45:07.696Z,77.24
2023-05-25T20:47:41.038Z,77.01
2023-05-25T20:50:13.797Z,77.18
2023-05-25T20:52:46.540Z,77.12
2023-05-25T20:55:20.680Z,76.63
2023-05-25T20:57:53.549Z,76.29
2023-05-25T21:00:26.462Z,75.96
2023-05-25T21:02:59.332Z,75.47
2023-05-25T21:05:33.954Z,74.76
2023-05-25T21:08:06.792Z,74.48
2023-05-25T21:10:40.970Z,74.34
2023-05-25T21:13:14.140Z,74.27
2023-05-25T21:15:46.993Z,73.99
2023-05-25T21:18:19.945Z,73.98
2023-05-25T21:20:52.758Z,73.69
2023-05-25T21:23:26.290Z,73.84
2023-05-25T21:26:00.572Z,73.81
2023-05-25T21:28:33.435Z,73.94
2023-05-25T21:31:06.231Z,74.03
2023-05-25T21:33:40.602Z,74.18
2023-05-25T21:36:13.307Z,73.96
2023-05-25T21:38:46.138Z,74.04
2023-05-25T21:41:20.311Z,74.03
2023-05-25T21:43:53.108Z,74.21
2023-05-25T21:46:25.977Z,74.13
2023-05-25T21:48:58.833Z,74.09
2023-05-25T21:51:32.297Z,74.24
2023-05-25T21:54:05.460Z,74.08
2023-05-25T21:56:39.584Z,74.35
2023-05-25T21:59:12.516Z,74.24
2023-05-25T22:01:45.215Z,74.21
2023-05-25T22:04:18.029Z,74.25
2023-05-25T22:06:50.719Z,73.98
2023-05-25T22:09:23.638Z,74.33
2023-05-25T22:11:57.884Z,74.32
2023-05-25T22:14:30.618Z,74.35
2023-05-25T22:17:03.396Z,74.24
2023-05-25T22:19:36.181Z,74.15
2023-05-25T22:22:08.972Z,74.47
2023-05-25T22:24:41.682Z,74.47
2023-05-25T22:27:15.708Z,74.61
2023-05-25T22:29:48.445Z,75.13
2023-05-25T22:32:21.306Z,74.89
2023-05-25T22:34:54.200Z,75.10
2023-05-25T22:37:26.986Z,74.79
2023-05-25T22:39:59.729Z,75.17
2023-05-25T22:42:33.779Z,75.14
2023-05-25T22:45:07.048Z,74.89
2023-05-25T22:47:39.852Z,74.82
2023-05-25T22:50:12.950Z,75.03
2023-05-25T22:52:46.152Z,75.10
2023-05-25T22:55:18.855Z,75.32
2023-05-25T22:57:52.929Z,75.46
2023-05-25T23:00:25.860Z,75.16
2023-05-25T23:03:00.348Z,75.16
2023-05-25T23:05:34.360Z,75.08
2023-05-25T23:08:07.121Z,75.04
2023-05-25T23:10:40.144Z,75.24
2023-05-25T23:13:14.996Z,74.92
2023-05-25T23:15:48.617Z,75.13
2023-05-25T23:18:21.626Z,75.02
2023-05-25T23:20:54.439Z,75.19
2023-05-25T23:23:27.100Z,75.06
2023-05-25T23:25:59.950Z,75.01
2023-05-25T23:28:34.369Z,75.03
2023-05-25T23:31:07.133Z,74.98
2023-05-25T23:33:39.857Z,75.30
2023-05-25T23:36:12.688Z,75.10
2023-05-25T23:38:46.433Z,75.16
2023-05-25T23:41:19.231Z,75.47
2023-05-25T23:43:53.475Z,75.57
2023-05-25T23:46:27.821Z,75.69
2023-05-25T23:49:00.630Z,75.60
2023-05-25T23:51:33.480Z,75.74
2023-05-25T23:54:07.156Z,75.55
2023-05-25T23:56:39.949Z,75.63
2023-05-25T23:59:15.200Z,75.61
